Amboy, IL (61310)

9:19 AM CDT on August 31, 2015 (GMT -0500)
Lee Co EMA Amboy Site | | Change Station
CLOSE
Current Station
Personal Weather Station
Location: Amboy, IL
Elevation: 765 ft
Nearby Weather Stations

Elev 765 ft 41.71 °N, 89.32 °W | Updated 58 seconds ago

Clear
Clear
73.1 °F
Feels Like 71 °F
N
0.0
Wind Variable Wind from SW
Gusts 22.0 mph

Today
High -- | Low -- °F
--% Chance of Precip.
Yesterday
High -- | Low -- °F
Precip. -- in
6:22 AM 7:32 PM
Waning Gibbous, 95% visible
Pressure 30.08 in
Visibility 3.0 miles
Clouds Clear
Heat Index 71 °F
Dew Point 70 °F
Humidity 90%
Rainfall 0.00 in
Snow Depth Not available.
UV 3 out of 12
Pollen 10.70 out of 12
Air Quality Not available.
Flu Activity Not available.
METAR KRPJ 311355Z AUTO 00000KT 3SM BR CLR 20/18 A3008 RMK AO2 T01950183
Pressure 30.08 in
Visibility 3.0 miles
Clouds Clear
Heat Index 71 °F
Dew Point 70 °F
Humidity 90%
Rainfall 0.00 in
Snow Depth Not available.
UV 3 out of 12
Pollen 10.70 out of 12
Air Quality Not available.
Flu Activity Not available.
METAR KRPJ 311355Z AUTO 00000KT 3SM BR CLR 20/18 A3008 RMK AO2 T01950183

10-Day Weather Forecast

×

Almanac

Astronomy

Aug. 31, 2015 Rise Set
Actual Time
Civil Twilight
Nautical Twilight
Astronomical Twilight
Moon
Length of Visible Light
Length of Day
Tomorrow will be .
, % of the Moon is Illuminated

Today's Extremes

State Highs State Lows

Community

WunderPhotos

Upload Photos

1,851,244 photos uploaded!

WunderBlogs® & News

Nearby

Air Quality

  Air Quality AQ Index Pollutant
Not available.

Snow Depth

Station Depth Elevation

Earthquake Activity

City Distance Mag. Time & Date
Minimum magnitude displayed is 2.5.

Coastal Water Temperatures

Place Temperature

Stations

Nearby Weather Stations

Station Location Temp. Windchill Dew Point Humidity Wind Precip. Elev Updated Type